sensor_id;sensor_type;location;lat;lon;timestamp;temperature;humidity
53962;DHT22;39868;53.398;6.564;2023-02-27T00:02:15;5.90;65.10
53962;DHT22;39868;53.398;6.564;2023-02-27T00:04:42;5.90;65.10
53962;DHT22;39868;53.398;6.564;2023-02-27T00:07:10;5.80;65.10
53962;DHT22;39868;53.398;6.564;2023-02-27T00:09:37;5.80;65.20
53962;DHT22;39868;53.398;6.564;2023-02-27T00:12:08;5.70;65.30
53962;DHT22;39868;53.398;6.564;2023-02-27T00:14:36;5.70;65.40
53962;DHT22;39868;53.398;6.564;2023-02-27T00:17:03;5.70;65.40
53962;DHT22;39868;53.398;6.564;2023-02-27T00:19:30;5.70;65.60
53962;DHT22;39868;53.398;6.564;2023-02-27T00:21:58;5.60;65.50
53962;DHT22;39868;53.398;6.564;2023-02-27T00:24:25;5.60;65.60
53962;DHT22;39868;53.398;6.564;2023-02-27T00:26:53;5.60;65.60
53962;DHT22;39868;53.398;6.564;2023-02-27T00:29:20;5.60;65.70
53962;DHT22;39868;53.398;6.564;2023-02-27T00:31:50;5.50;65.70
53962;DHT22;39868;53.398;6.564;2023-02-27T00:34:18;5.50;65.80
53962;DHT22;39868;53.398;6.564;2023-02-27T00:36:45;5.50;65.80
53962;DHT22;39868;53.398;6.564;2023-02-27T00:39:12;5.50;66.40
53962;DHT22;39868;53.398;6.564;2023-02-27T00:41:41;5.50;66.00
53962;DHT22;39868;53.398;6.564;2023-02-27T00:44:09;5.50;66.00
53962;DHT22;39868;53.398;6.564;2023-02-27T00:46:36;5.50;66.00
53962;DHT22;39868;53.398;6.564;2023-02-27T00:49:05;5.50;66.00
53962;DHT22;39868;53.398;6.564;2023-02-27T00:51:32;5.50;66.00
53962;DHT22;39868;53.398;6.564;2023-02-27T00:54:02;5.50;66.00
53962;DHT22;39868;53.398;6.564;2023-02-27T00:56:29;5.40;66.00
53962;DHT22;39868;53.398;6.564;2023-02-27T00:58:57;5.40;65.90
53962;DHT22;39868;53.398;6.564;2023-02-27T01:01:24;5.40;65.90
53962;DHT22;39868;53.398;6.564;2023-02-27T01:03:52;5.30;65.80
53962;DHT22;39868;53.398;6.564;2023-02-27T01:06:19;5.30;65.80
53962;DHT22;39868;53.398;6.564;2023-02-27T01:08:46;5.30;65.80
53962;DHT22;39868;53.398;6.564;2023-02-27T01:11:14;5.20;65.80
53962;DHT22;39868;53.398;6.564;2023-02-27T01:13:41;5.20;65.80
53962;DHT22;39868;53.398;6.564;2023-02-27T01:16:10;5.20;65.80
53962;DHT22;39868;53.398;6.564;2023-02-27T01:18:38;5.10;65.80
53962;DHT22;39868;53.398;6.564;2023-02-27T01:21:06;5.10;65.80
53962;DHT22;39868;53.398;6.564;2023-02-27T01:23:33;5.00;65.80
53962;DHT22;39868;53.398;6.564;2023-02-27T01:26:01;5.00;65.80
53962;DHT22;39868;53.398;6.564;2023-02-27T01:28:28;4.90;65.80
53962;DHT22;39868;53.398;6.564;2023-02-27T01:30:55;4.90;66.00
53962;DHT22;39868;53.398;6.564;2023-02-27T01:33:23;4.80;65.90
53962;DHT22;39868;53.398;6.564;2023-02-27T01:35:50;4.80;66.00
53962;DHT22;39868;53.398;6.564;2023-02-27T01:38:17;4.80;66.10
53962;DHT22;39868;53.398;6.564;2023-02-27T01:40:45;4.70;66.10
53962;DHT22;39868;53.398;6.564;2023-02-27T01:43:15;4.70;66.10
53962;DHT22;39868;53.398;6.564;2023-02-27T01:45:45;4.70;66.20
53962;DHT22;39868;53.398;6.564;2023-02-27T01:48:28;4.60;66.20
53962;DHT22;39868;53.398;6.564;2023-02-27T01:51:10;4.60;66.30
53962;DHT22;39868;53.398;6.564;2023-02-27T01:53:42;4.50;66.30
53962;DHT22;39868;53.398;6.564;2023-02-27T01:56:17;4.50;66.30
53962;DHT22;39868;53.398;6.564;2023-02-27T01:58:47;4.40;66.30
53962;DHT22;39868;53.398;6.564;2023-02-27T02:01:16;4.40;66.40
53962;DHT22;39868;53.398;6.564;2023-02-27T02:06:20;4.30;66.50
53962;DHT22;39868;53.398;6.564;2023-02-27T02:08:50;4.30;66.40
53962;DHT22;39868;53.398;6.564;2023-02-27T02:11:20;4.30;66.60
53962;DHT22;39868;53.398;6.564;2023-02-27T02:13:52;4.20;66.60
53962;DHT22;39868;53.398;6.564;2023-02-27T02:19:10;4.20;66.80
53962;DHT22;39868;53.398;6.564;2023-02-27T02:36:30;4.20;67.50
53962;DHT22;39868;53.398;6.564;2023-02-27T02:39:21;4.20;67.50
53962;DHT22;39868;53.398;6.564;2023-02-27T02:42:09;4.20;67.60
53962;DHT22;39868;53.398;6.564;2023-02-27T02:50:32;4.30;67.60
53962;DHT22;39868;53.398;6.564;2023-02-27T02:58:20;4.30;67.80
53962;DHT22;39868;53.398;6.564;2023-02-27T03:01:10;4.40;67.90
53962;DHT22;39868;53.398;6.564;2023-02-27T03:06:19;4.50;68.10
53962;DHT22;39868;53.398;6.564;2023-02-27T03:08:57;4.50;68.10
53962;DHT22;39868;53.398;6.564;2023-02-27T03:11:30;4.50;68.20
53962;DHT22;39868;53.398;6.564;2023-02-27T03:14:01;4.60;68.30
53962;DHT22;39868;53.398;6.564;2023-02-27T03:16:42;4.60;68.20
53962;DHT22;39868;53.398;6.564;2023-02-27T03:19:20;4.70;68.30
53962;DHT22;39868;53.398;6.564;2023-02-27T03:24:31;4.70;68.10
53962;DHT22;39868;53.398;6.564;2023-02-27T03:27:00;4.70;68.00
53962;DHT22;39868;53.398;6.564;2023-02-27T03:29:39;4.70;67.90
53962;DHT22;39868;53.398;6.564;2023-02-27T03:32:15;4.70;67.80
53962;DHT22;39868;53.398;6.564;2023-02-27T03:34:44;4.70;67.70
53962;DHT22;39868;53.398;6.564;2023-02-27T03:47:50;4.50;67.40
53962;DHT22;39868;53.398;6.564;2023-02-27T03:50:18;4.50;67.40
53962;DHT22;39868;53.398;6.564;2023-02-27T03:52:48;4.40;67.40
53962;DHT22;39868;53.398;6.564;2023-02-27T03:55:19;4.40;67.40
53962;DHT22;39868;53.398;6.564;2023-02-27T03:57:50;4.40;67.40
53962;DHT22;39868;53.398;6.564;2023-02-27T04:00:20;4.30;67.40
53962;DHT22;39868;53.398;6.564;2023-02-27T04:02:50;4.30;67.40
53962;DHT22;39868;53.398;6.564;2023-02-27T04:05:23;4.30;67.50
53962;DHT22;39868;53.398;6.564;2023-02-27T04:13:29;4.20;67.50
53962;DHT22;39868;53.398;6.564;2023-02-27T04:16:32;4.20;67.60
53962;DHT22;39868;53.398;6.564;2023-02-27T04:19:43;4.20;67.60
53962;DHT22;39868;53.398;6.564;2023-02-27T04:22:36;4.10;67.60
53962;DHT22;39868;53.398;6.564;2023-02-27T04:25:29;4.10;67.70
53962;DHT22;39868;53.398;6.564;2023-02-27T04:31:01;4.10;67.80
53962;DHT22;39868;53.398;6.564;2023-02-27T04:33:48;4.00;67.80
53962;DHT22;39868;53.398;6.564;2023-02-27T04:36:26;4.00;67.80
53962;DHT22;39868;53.398;6.564;2023-02-27T04:39:09;4.00;67.90
53962;DHT22;39868;53.398;6.564;2023-02-27T04:41:46;4.00;67.90
53962;DHT22;39868;53.398;6.564;2023-02-27T04:44:18;4.00;68.00
53962;DHT22;39868;53.398;6.564;2023-02-27T04:46:47;4.00;68.00
53962;DHT22;39868;53.398;6.564;2023-02-27T04:49:27;4.00;68.00
53962;DHT22;39868;53.398;6.564;2023-02-27T04:52:17;3.90;68.00
53962;DHT22;39868;53.398;6.564;2023-02-27T04:55:04;3.90;68.00
53962;DHT22;39868;53.398;6.564;2023-02-27T04:57:38;3.90;68.00
53962;DHT22;39868;53.398;6.564;2023-02-27T05:00:09;3.90;68.00
53962;DHT22;39868;53.398;6.564;2023-02-27T05:02:42;3.90;68.00
53962;DHT22;39868;53.398;6.564;2023-02-27T05:05:15;3.90;68.00
53962;DHT22;39868;53.398;6.564;2023-02-27T05:07:59;3.80;68.10
53962;DHT22;39868;53.398;6.564;2023-02-27T05:10:41;3.80;68.10
53962;DHT22;39868;53.398;6.564;2023-02-27T05:13:18;3.80;68.20
53962;DHT22;39868;53.398;6.564;2023-02-27T05:18:43;3.70;68.20
53962;DHT22;39868;53.398;6.564;2023-02-27T05:26:52;3.70;68.00
53962;DHT22;39868;53.398;6.564;2023-02-27T05:32:42;3.60;68.20
53962;DHT22;39868;53.398;6.564;2023-02-27T05:38:04;3.50;68.30
53962;DHT22;39868;53.398;6.564;2023-02-27T05:40:38;3.50;68.30
53962;DHT22;39868;53.398;6.564;2023-02-27T05:43:11;3.50;68.40
53962;DHT22;39868;53.398;6.564;2023-02-27T05:45:45;3.50;68.50
53962;DHT22;39868;53.398;6.564;2023-02-27T05:48:38;3.50;68.50
53962;DHT22;39868;53.398;6.564;2023-02-27T05:51:10;3.50;68.60
53962;DHT22;39868;53.398;6.564;2023-02-27T05:53:45;3.50;68.60
53962;DHT22;39868;53.398;6.564;2023-02-27T05:56:17;3.50;68.70
53962;DHT22;39868;53.398;6.564;2023-02-27T05:59:13;3.50;68.80
53962;DHT22;39868;53.398;6.564;2023-02-27T06:01:44;3.50;68.90
53962;DHT22;39868;53.398;6.564;2023-02-27T06:04:12;3.50;68.90
53962;DHT22;39868;53.398;6.564;2023-02-27T06:06:39;3.40;68.90
53962;DHT22;39868;53.398;6.564;2023-02-27T06:09:10;3.50;69.10
53962;DHT22;39868;53.398;6.564;2023-02-27T06:11:37;3.50;69.10
53962;DHT22;39868;53.398;6.564;2023-02-27T06:14:04;3.50;69.20
53962;DHT22;39868;53.398;6.564;2023-02-27T06:16:32;3.50;69.20
53962;DHT22;39868;53.398;6.564;2023-02-27T06:19:04;3.50;69.20
53962;DHT22;39868;53.398;6.564;2023-02-27T06:21:32;3.50;69.20
53962;DHT22;39868;53.398;6.564;2023-02-27T06:23:59;3.50;69.20
53962;DHT22;39868;53.398;6.564;2023-02-27T06:26:27;3.50;69.20
53962;DHT22;39868;53.398;6.564;2023-02-27T06:28:54;3.50;69.20
53962;DHT22;39868;53.398;6.564;2023-02-27T06:31:22;3.50;69.20
53962;DHT22;39868;53.398;6.564;2023-02-27T06:33:49;3.50;69.30
53962;DHT22;39868;53.398;6.564;2023-02-27T06:36:16;3.50;69.30
53962;DHT22;39868;53.398;6.564;2023-02-27T06:38:44;3.50;69.30
53962;DHT22;39868;53.398;6.564;2023-02-27T06:41:12;3.50;69.20
53962;DHT22;39868;53.398;6.564;2023-02-27T06:43:39;3.50;69.30
53962;DHT22;39868;53.398;6.564;2023-02-27T06:46:06;3.50;69.30
53962;DHT22;39868;53.398;6.564;2023-02-27T06:48:34;3.50;69.30
53962;DHT22;39868;53.398;6.564;2023-02-27T06:51:01;3.50;69.40
53962;DHT22;39868;53.398;6.564;2023-02-27T06:53:29;3.50;69.40
53962;DHT22;39868;53.398;6.564;2023-02-27T06:55:57;3.50;69.50
53962;DHT22;39868;53.398;6.564;2023-02-27T06:58:24;3.50;69.50
53962;DHT22;39868;53.398;6.564;2023-02-27T07:00:51;3.50;69.60
53962;DHT22;39868;53.398;6.564;2023-02-27T07:03:19;3.50;69.70
53962;DHT22;39868;53.398;6.564;2023-02-27T07:05:46;3.60;69.80
53962;DHT22;39868;53.398;6.564;2023-02-27T07:08:13;3.60;69.80
53962;DHT22;39868;53.398;6.564;2023-02-27T07:10:44;3.60;69.90
53962;DHT22;39868;53.398;6.564;2023-02-27T07:13:13;3.60;69.90
53962;DHT22;39868;53.398;6.564;2023-02-27T07:15:44;3.70;70.00
53962;DHT22;39868;53.398;6.564;2023-02-27T07:18:11;3.70;69.90
53962;DHT22;39868;53.398;6.564;2023-02-27T07:20:39;3.70;69.90
53962;DHT22;39868;53.398;6.564;2023-02-27T07:23:06;3.70;69.90
53962;DHT22;39868;53.398;6.564;2023-02-27T07:25:33;3.70;69.90
53962;DHT22;39868;53.398;6.564;2023-02-27T07:28:01;3.80;70.00
53962;DHT22;39868;53.398;6.564;2023-02-27T07:30:28;3.80;70.20
53962;DHT22;39868;53.398;6.564;2023-02-27T07:32:56;3.90;70.40
53962;DHT22;39868;53.398;6.564;2023-02-27T07:35:24;4.00;70.70
53962;DHT22;39868;53.398;6.564;2023-02-27T07:37:51;4.00;70.90
53962;DHT22;39868;53.398;6.564;2023-02-27T07:40:19;4.10;70.90
53962;DHT22;39868;53.398;6.564;2023-02-27T07:42:47;4.20;71.00
53962;DHT22;39868;53.398;6.564;2023-02-27T07:45:16;4.20;71.00
53962;DHT22;39868;53.398;6.564;2023-02-27T07:47:46;4.30;71.00
53962;DHT22;39868;53.398;6.564;2023-02-27T07:50:14;4.40;71.00
53962;DHT22;39868;53.398;6.564;2023-02-27T07:52:42;4.40;71.00
53962;DHT22;39868;53.398;6.564;2023-02-27T07:55:12;4.40;70.90
53962;DHT22;39868;53.398;6.564;2023-02-27T07:57:39;4.50;71.00
53962;DHT22;39868;53.398;6.564;2023-02-27T08:00:07;4.60;71.10
53962;DHT22;39868;53.398;6.564;2023-02-27T08:02:38;4.60;71.10
53962;DHT22;39868;53.398;6.564;2023-02-27T08:05:06;4.70;71.30
53962;DHT22;39868;53.398;6.564;2023-02-27T08:07:34;4.80;71.70
53962;DHT22;39868;53.398;6.564;2023-02-27T08:10:04;4.90;71.80
53962;DHT22;39868;53.398;6.564;2023-02-27T08:12:31;5.00;71.90
53962;DHT22;39868;53.398;6.564;2023-02-27T08:14:59;5.10;71.90
53962;DHT22;39868;53.398;6.564;2023-02-27T08:17:26;5.20;72.10
53962;DHT22;39868;53.398;6.564;2023-02-27T08:19:53;5.30;72.20
53962;DHT22;39868;53.398;6.564;2023-02-27T08:22:21;5.50;72.30
53962;DHT22;39868;53.398;6.564;2023-02-27T08:24:48;5.50;72.50
53962;DHT22;39868;53.398;6.564;2023-02-27T08:27:15;5.70;72.60
53962;DHT22;39868;53.398;6.564;2023-02-27T08:29:42;5.80;72.90
53962;DHT22;39868;53.398;6.564;2023-02-27T08:32:11;5.90;73.30
53962;DHT22;39868;53.398;6.564;2023-02-27T08:34:39;6.00;73.30
53962;DHT22;39868;53.398;6.564;2023-02-27T08:37:07;6.10;73.20
53962;DHT22;39868;53.398;6.564;2023-02-27T08:39:34;6.20;73.40
53962;DHT22;39868;53.398;6.564;2023-02-27T08:42:02;6.30;73.50
53962;DHT22;39868;53.398;6.564;2023-02-27T08:44:29;6.40;73.30
53962;DHT22;39868;53.398;6.564;2023-02-27T08:46:56;6.50;73.30
53962;DHT22;39868;53.398;6.564;2023-02-27T08:49:24;6.60;73.70
53962;DHT22;39868;53.398;6.564;2023-02-27T08:51:52;6.70;73.70
53962;DHT22;39868;53.398;6.564;2023-02-27T08:54:19;6.80;74.10
53962;DHT22;39868;53.398;6.564;2023-02-27T08:56:47;6.90;74.30
53962;DHT22;39868;53.398;6.564;2023-02-27T08:59:14;7.00;74.50
53962;DHT22;39868;53.398;6.564;2023-02-27T09:01:42;7.10;74.60
53962;DHT22;39868;53.398;6.564;2023-02-27T09:04:09;7.20;74.70
53962;DHT22;39868;53.398;6.564;2023-02-27T09:06:37;7.20;74.80
53962;DHT22;39868;53.398;6.564;2023-02-27T09:09:05;7.40;74.90
53962;DHT22;39868;53.398;6.564;2023-02-27T09:11:33;7.50;74.90
53962;DHT22;39868;53.398;6.564;2023-02-27T09:14:01;7.60;74.90
53962;DHT22;39868;53.398;6.564;2023-02-27T09:16:29;7.70;74.80
53962;DHT22;39868;53.398;6.564;2023-02-27T09:18:57;7.80;74.60
53962;DHT22;39868;53.398;6.564;2023-02-27T09:21:24;8.00;73.60
53962;DHT22;39868;53.398;6.564;2023-02-27T09:23:52;8.10;72.70
53962;DHT22;39868;53.398;6.564;2023-02-27T09:26:19;8.20;72.30
53962;DHT22;39868;53.398;6.564;2023-02-27T09:29:01;8.30;72.00
53962;DHT22;39868;53.398;6.564;2023-02-27T09:31:29;8.50;71.00
53962;DHT22;39868;53.398;6.564;2023-02-27T09:33:59;8.60;67.40
53962;DHT22;39868;53.398;6.564;2023-02-27T09:36:27;8.60;66.00
53962;DHT22;39868;53.398;6.564;2023-02-27T09:38:57;8.70;65.50
53962;DHT22;39868;53.398;6.564;2023-02-27T09:41:45;8.70;65.10
53962;DHT22;39868;53.398;6.564;2023-02-27T09:46:44;8.70;64.00
53962;DHT22;39868;53.398;6.564;2023-02-27T09:49:15;8.70;64.20
53962;DHT22;39868;53.398;6.564;2023-02-27T09:51:45;8.80;63.80
53962;DHT22;39868;53.398;6.564;2023-02-27T09:54:12;8.80;63.30
53962;DHT22;39868;53.398;6.564;2023-02-27T09:57:00;8.80;62.20
53962;DHT22;39868;53.398;6.564;2023-02-27T09:59:43;8.80;63.70
53962;DHT22;39868;53.398;6.564;2023-02-27T10:07:55;8.90;63.80
53962;DHT22;39868;53.398;6.564;2023-02-27T10:10:49;9.00;63.30
53962;DHT22;39868;53.398;6.564;2023-02-27T10:13:38;9.00;62.00
53962;DHT22;39868;53.398;6.564;2023-02-27T10:16:16;9.10;62.00
53962;DHT22;39868;53.398;6.564;2023-02-27T10:18:57;9.10;62.30
53962;DHT22;39868;53.398;6.564;2023-02-27T10:21:32;9.20;61.90
53962;DHT22;39868;53.398;6.564;2023-02-27T10:26:48;9.20;60.00
53962;DHT22;39868;53.398;6.564;2023-02-27T10:29:35;9.20;61.30
53962;DHT22;39868;53.398;6.564;2023-02-27T10:34:59;9.30;57.60
53962;DHT22;39868;53.398;6.564;2023-02-27T10:37:31;9.30;60.60
53962;DHT22;39868;53.398;6.564;2023-02-27T10:40:03;9.30;57.20
53962;DHT22;39868;53.398;6.564;2023-02-27T10:42:35;9.30;56.40
53962;DHT22;39868;53.398;6.564;2023-02-27T10:45:11;9.40;57.80
53962;DHT22;39868;53.398;6.564;2023-02-27T10:47:41;9.40;55.40
53962;DHT22;39868;53.398;6.564;2023-02-27T10:52:52;9.40;54.10
53962;DHT22;39868;53.398;6.564;2023-02-27T10:55:29;9.40;56.50
53962;DHT22;39868;53.398;6.564;2023-02-27T10:57:58;9.40;54.90
53962;DHT22;39868;53.398;6.564;2023-02-27T11:01:00;9.50;55.20
53962;DHT22;39868;53.398;6.564;2023-02-27T11:03:53;9.50;55.60
53962;DHT22;39868;53.398;6.564;2023-02-27T11:06:24;9.50;54.40
53962;DHT22;39868;53.398;6.564;2023-02-27T11:09:21;9.60;55.20
53962;DHT22;39868;53.398;6.564;2023-02-27T11:11:50;9.60;54.80
53962;DHT22;39868;53.398;6.564;2023-02-27T11:14:32;9.60;55.30
53962;DHT22;39868;53.398;6.564;2023-02-27T11:17:01;9.60;54.30
53962;DHT22;39868;53.398;6.564;2023-02-27T11:19:37;9.60;55.30
53962;DHT22;39868;53.398;6.564;2023-02-27T11:22:20;9.70;53.00
53962;DHT22;39868;53.398;6.564;2023-02-27T11:24:51;9.70;53.10
53962;DHT22;39868;53.398;6.564;2023-02-27T11:30:03;9.70;56.70
53962;DHT22;39868;53.398;6.564;2023-02-27T11:32:40;9.80;55.00
53962;DHT22;39868;53.398;6.564;2023-02-27T11:35:27;9.90;57.60
53962;DHT22;39868;53.398;6.564;2023-02-27T11:38:04;9.90;56.20
53962;DHT22;39868;53.398;6.564;2023-02-27T11:40:37;10.00;56.80
53962;DHT22;39868;53.398;6.564;2023-02-27T11:43:16;10.00;59.10
53962;DHT22;39868;53.398;6.564;2023-02-27T11:45:50;10.10;58.70
53962;DHT22;39868;53.398;6.564;2023-02-27T11:48:50;10.20;57.90
53962;DHT22;39868;53.398;6.564;2023-02-27T11:54:37;10.30;56.40
53962;DHT22;39868;53.398;6.564;2023-02-27T11:57:38;10.30;57.90
53962;DHT22;39868;53.398;6.564;2023-02-27T12:05:26;10.40;56.50
53962;DHT22;39868;53.398;6.564;2023-02-27T12:08:02;10.30;56.90
53962;DHT22;39868;53.398;6.564;2023-02-27T12:10:49;10.30;57.50
53962;DHT22;39868;53.398;6.564;2023-02-27T12:13:29;10.30;59.20
53962;DHT22;39868;53.398;6.564;2023-02-27T12:16:16;10.30;58.70
53962;DHT22;39868;53.398;6.564;2023-02-27T12:21:40;10.30;58.00
53962;DHT22;39868;53.398;6.564;2023-02-27T12:24:35;10.30;60.00
53962;DHT22;39868;53.398;6.564;2023-02-27T12:27:46;10.30;60.00
53962;DHT22;39868;53.398;6.564;2023-02-27T12:30:22;10.30;59.50
53962;DHT22;39868;53.398;6.564;2023-02-27T12:33:12;10.30;58.30
53962;DHT22;39868;53.398;6.564;2023-02-27T12:35:44;10.30;58.80
53962;DHT22;39868;53.398;6.564;2023-02-27T12:38:15;10.30;58.50
53962;DHT22;39868;53.398;6.564;2023-02-27T13:03:39;10.30;59.30
53962;DHT22;39868;53.398;6.564;2023-02-27T13:06:30;10.30;59.20
53962;DHT22;39868;53.398;6.564;2023-02-27T13:17:03;10.20;60.70
53962;DHT22;39868;53.398;6.564;2023-02-27T13:19:51;10.10;60.00
53962;DHT22;39868;53.398;6.564;2023-02-27T13:25:13;10.10;61.60
53962;DHT22;39868;53.398;6.564;2023-02-27T13:30:35;10.10;60.50
53962;DHT22;39868;53.398;6.564;2023-02-27T13:38:41;10.10;61.30
53962;DHT22;39868;53.398;6.564;2023-02-27T13:43:59;10.00;61.00
53962;DHT22;39868;53.398;6.564;2023-02-27T13:46:46;10.00;62.90
53962;DHT22;39868;53.398;6.564;2023-02-27T13:49:21;10.00;62.50
53962;DHT22;39868;53.398;6.564;2023-02-27T13:51:56;10.10;63.50
53962;DHT22;39868;53.398;6.564;2023-02-27T13:54:30;10.10;63.40
53962;DHT22;39868;53.398;6.564;2023-02-27T13:57:13;10.10;63.50
53962;DHT22;39868;53.398;6.564;2023-02-27T13:59:56;10.20;62.20
53962;DHT22;39868;53.398;6.564;2023-02-27T14:02:32;10.10;62.40
53962;DHT22;39868;53.398;6.564;2023-02-27T14:05:04;10.20;63.70
53962;DHT22;39868;53.398;6.564;2023-02-27T14:07:48;10.10;63.30
53962;DHT22;39868;53.398;6.564;2023-02-27T14:10:27;10.10;63.90
53962;DHT22;39868;53.398;6.564;2023-02-27T14:12:56;10.20;65.00
53962;DHT22;39868;53.398;6.564;2023-02-27T14:18:00;10.20;64.80
53962;DHT22;39868;53.398;6.564;2023-02-27T14:23:17;10.10;63.60
53962;DHT22;39868;53.398;6.564;2023-02-27T14:26:13;10.10;64.50
53962;DHT22;39868;53.398;6.564;2023-02-27T14:28:47;10.20;65.40
53962;DHT22;39868;53.398;6.564;2023-02-27T14:31:35;10.20;64.20
53962;DHT22;39868;53.398;6.564;2023-02-27T14:34:05;10.20;63.40
53962;DHT22;39868;53.398;6.564;2023-02-27T14:36:43;10.20;64.10
53962;DHT22;39868;53.398;6.564;2023-02-27T14:39:34;10.30;64.90
53962;DHT22;39868;53.398;6.564;2023-02-27T14:44:47;10.40;64.30
53962;DHT22;39868;53.398;6.564;2023-02-27T14:47:33;10.40;63.90
53962;DHT22;39868;53.398;6.564;2023-02-27T14:50:07;10.40;64.20
53962;DHT22;39868;53.398;6.564;2023-02-27T14:52:46;10.30;63.40
53962;DHT22;39868;53.398;6.564;2023-02-27T14:57:57;10.20;64.80
53962;DHT22;39868;53.398;6.564;2023-02-27T15:00:36;10.20;63.20
53962;DHT22;39868;53.398;6.564;2023-02-27T15:03:22;10.10;61.90
53962;DHT22;39868;53.398;6.564;2023-02-27T15:05:53;10.10;62.00
53962;DHT22;39868;53.398;6.564;2023-02-27T15:08:24;10.10;62.20
53962;DHT22;39868;53.398;6.564;2023-02-27T15:10:53;10.00;62.10
53962;DHT22;39868;53.398;6.564;2023-02-27T15:13:30;10.10;63.20
53962;DHT22;39868;53.398;6.564;2023-02-27T15:16:17;10.00;61.30
53962;DHT22;39868;53.398;6.564;2023-02-27T15:18:50;10.00;62.30
53962;DHT22;39868;53.398;6.564;2023-02-27T15:21:19;10.00;62.80
53962;DHT22;39868;53.398;6.564;2023-02-27T15:23:58;9.90;62.40
53962;DHT22;39868;53.398;6.564;2023-02-27T15:26:27;10.00;62.30
53962;DHT22;39868;53.398;6.564;2023-02-27T15:28:59;9.90;61.70
53962;DHT22;39868;53.398;6.564;2023-02-27T15:31:27;9.90;61.80
53962;DHT22;39868;53.398;6.564;2023-02-27T15:33:59;9.80;61.70
53962;DHT22;39868;53.398;6.564;2023-02-27T15:36:31;9.80;61.70
53962;DHT22;39868;53.398;6.564;2023-02-27T15:41:52;9.60;62.30
53962;DHT22;39868;53.398;6.564;2023-02-27T15:44:24;9.60;63.00
53962;DHT22;39868;53.398;6.564;2023-02-27T15:46:52;9.50;62.60
53962;DHT22;39868;53.398;6.564;2023-02-27T15:49:22;9.40;62.50
53962;DHT22;39868;53.398;6.564;2023-02-27T15:52:18;9.40;61.80
53962;DHT22;39868;53.398;6.564;2023-02-27T15:55:05;9.30;62.00
53962;DHT22;39868;53.398;6.564;2023-02-27T15:57:32;9.30;62.00
53962;DHT22;39868;53.398;6.564;2023-02-27T16:00:00;9.30;62.30
53962;DHT22;39868;53.398;6.564;2023-02-27T16:02:49;9.20;62.20
53962;DHT22;39868;53.398;6.564;2023-02-27T16:07:52;9.20;62.60
53962;DHT22;39868;53.398;6.564;2023-02-27T16:10:26;9.10;63.40
53962;DHT22;39868;53.398;6.564;2023-02-27T16:12:54;9.10;63.90
53962;DHT22;39868;53.398;6.564;2023-02-27T16:15:30;9.10;63.10
53962;DHT22;39868;53.398;6.564;2023-02-27T16:20:43;9.10;64.20
53962;DHT22;39868;53.398;6.564;2023-02-27T16:23:23;9.10;64.20
53962;DHT22;39868;53.398;6.564;2023-02-27T16:29:03;9.00;64.50
53962;DHT22;39868;53.398;6.564;2023-02-27T16:31:37;9.00;64.50
53962;DHT22;39868;53.398;6.564;2023-02-27T16:36:50;9.00;65.50
53962;DHT22;39868;53.398;6.564;2023-02-27T16:39:18;9.00;65.60
53962;DHT22;39868;53.398;6.564;2023-02-27T16:41:46;9.00;65.70
53962;DHT22;39868;53.398;6.564;2023-02-27T16:44:13;9.10;65.90
53962;DHT22;39868;53.398;6.564;2023-02-27T16:46:41;9.10;66.50
53962;DHT22;39868;53.398;6.564;2023-02-27T16:49:21;9.10;66.90
53962;DHT22;39868;53.398;6.564;2023-02-27T16:51:50;9.20;67.20
53962;DHT22;39868;53.398;6.564;2023-02-27T16:54:17;9.10;67.30
53962;DHT22;39868;53.398;6.564;2023-02-27T16:56:46;9.10;67.60
53962;DHT22;39868;53.398;6.564;2023-02-27T16:59:30;9.10;67.60
53962;DHT22;39868;53.398;6.564;2023-02-27T17:02:00;9.10;68.30
53962;DHT22;39868;53.398;6.564;2023-02-27T17:04:29;9.10;68.20
53962;DHT22;39868;53.398;6.564;2023-02-27T17:06:58;9.00;68.30
53962;DHT22;39868;53.398;6.564;2023-02-27T17:09:26;9.00;68.40
53962;DHT22;39868;53.398;6.564;2023-02-27T17:11:55;9.00;68.90
53962;DHT22;39868;53.398;6.564;2023-02-27T17:14:23;8.90;68.80
53962;DHT22;39868;53.398;6.564;2023-02-27T17:16:50;8.90;68.90
53962;DHT22;39868;53.398;6.564;2023-02-27T17:19:18;8.90;68.80
53962;DHT22;39868;53.398;6.564;2023-02-27T17:21:47;8.90;69.70
53962;DHT22;39868;53.398;6.564;2023-02-27T17:24:15;8.80;69.40
53962;DHT22;39868;53.398;6.564;2023-02-27T17:26:42;8.80;69.10
53962;DHT22;39868;53.398;6.564;2023-02-27T17:29:11;8.80;69.00
53962;DHT22;39868;53.398;6.564;2023-02-27T17:31:40;8.70;69.00
53962;DHT22;39868;53.398;6.564;2023-02-27T17:34:08;8.70;69.60
53962;DHT22;39868;53.398;6.564;2023-02-27T17:36:36;8.70;69.70
53962;DHT22;39868;53.398;6.564;2023-02-27T17:39:04;8.70;70.10
53962;DHT22;39868;53.398;6.564;2023-02-27T17:41:32;8.60;70.10
53962;DHT22;39868;53.398;6.564;2023-02-27T17:44:00;8.60;70.60
53962;DHT22;39868;53.398;6.564;2023-02-27T17:46:29;8.60;71.20
53962;DHT22;39868;53.398;6.564;2023-02-27T17:48:58;8.50;71.70
53962;DHT22;39868;53.398;6.564;2023-02-27T17:51:29;8.50;72.10
53962;DHT22;39868;53.398;6.564;2023-02-27T17:54:04;8.40;72.40
53962;DHT22;39868;53.398;6.564;2023-02-27T17:56:32;8.40;72.70
53962;DHT22;39868;53.398;6.564;2023-02-27T17:59:03;8.30;72.70
53962;DHT22;39868;53.398;6.564;2023-02-27T18:01:32;8.30;73.20
53962;DHT22;39868;53.398;6.564;2023-02-27T18:03:59;8.20;73.10
53962;DHT22;39868;53.398;6.564;2023-02-27T18:06:29;8.20;73.00
53962;DHT22;39868;53.398;6.564;2023-02-27T18:08:57;8.20;72.60
53962;DHT22;39868;53.398;6.564;2023-02-27T18:11:25;8.20;72.50
53962;DHT22;39868;53.398;6.564;2023-02-27T18:13:53;8.20;72.20
53962;DHT22;39868;53.398;6.564;2023-02-27T18:16:21;8.20;72.40
53962;DHT22;39868;53.398;6.564;2023-02-27T18:18:49;8.20;72.50
53962;DHT22;39868;53.398;6.564;2023-02-27T18:21:19;8.20;72.60
53962;DHT22;39868;53.398;6.564;2023-02-27T18:23:47;8.20;72.70
53962;DHT22;39868;53.398;6.564;2023-02-27T18:26:21;8.20;72.50
53962;DHT22;39868;53.398;6.564;2023-02-27T18:29:03;8.20;72.40
53962;DHT22;39868;53.398;6.564;2023-02-27T18:31:37;8.20;72.80
53962;DHT22;39868;53.398;6.564;2023-02-27T18:34:08;8.20;72.70
53962;DHT22;39868;53.398;6.564;2023-02-27T18:36:36;8.20;72.90
53962;DHT22;39868;53.398;6.564;2023-02-27T18:39:05;8.20;72.50
53962;DHT22;39868;53.398;6.564;2023-02-27T18:41:32;8.20;72.40
53962;DHT22;39868;53.398;6.564;2023-02-27T18:44:00;8.20;72.30
53962;DHT22;39868;53.398;6.564;2023-02-27T18:46:28;8.20;72.30
53962;DHT22;39868;53.398;6.564;2023-02-27T18:48:56;8.10;72.60
53962;DHT22;39868;53.398;6.564;2023-02-27T18:51:24;8.10;72.60
53962;DHT22;39868;53.398;6.564;2023-02-27T18:53:53;8.10;72.60
53962;DHT22;39868;53.398;6.564;2023-02-27T18:56:27;8.10;72.40
53962;DHT22;39868;53.398;6.564;2023-02-27T18:58:58;8.10;72.60
53962;DHT22;39868;53.398;6.564;2023-02-27T19:01:33;8.10;72.60
53962;DHT22;39868;53.398;6.564;2023-02-27T19:04:03;8.00;72.80
53962;DHT22;39868;53.398;6.564;2023-02-27T19:06:33;8.00;72.80
53962;DHT22;39868;53.398;6.564;2023-02-27T19:09:10;8.00;72.80
53962;DHT22;39868;53.398;6.564;2023-02-27T19:11:45;8.00;72.60